createdAt,value
2022-07-25T00:01:09.574Z,26.80
2022-07-25T00:04:25.228Z,26.81
2022-07-25T00:06:52.018Z,26.76
2022-07-25T00:09:57.505Z,26.93
2022-07-25T00:12:24.588Z,27.01
2022-07-25T00:14:51.483Z,27.13
2022-07-25T00:17:17.990Z,27.29
2022-07-25T00:19:49.314Z,26.18
2022-07-25T00:22:16.162Z,26.96
2022-07-25T00:24:48.337Z,27.25
2022-07-25T00:27:16.211Z,27.02
2022-07-25T00:29:42.846Z,26.99
2022-07-25T00:32:09.941Z,26.99
2022-07-25T00:34:38.639Z,26.83
2022-07-25T00:37:07.324Z,26.65
2022-07-25T00:39:40.528Z,26.38
2022-07-25T00:42:07.567Z,25.82
2022-07-25T00:44:56.653Z,26.39
2022-07-25T00:47:23.376Z,25.44
2022-07-25T00:49:50.124Z,26.50
2022-07-25T00:52:24.823Z,26.58
2022-07-25T00:54:51.569Z,26.47
2022-07-25T00:57:24.940Z,26.45
2022-07-25T00:59:51.479Z,26.57
2022-07-25T01:02:18.198Z,25.80
2022-07-25T01:04:59.325Z,26.74
2022-07-25T01:07:26.569Z,26.64
2022-07-25T01:10:19.304Z,26.84
2022-07-25T01:15:34.665Z,26.50
2022-07-25T01:18:02.694Z,27.07
2022-07-25T01:20:33.883Z,27.22
2022-07-25T01:23:16.314Z,25.91
2022-07-25T01:25:43.031Z,26.89
2022-07-25T01:28:09.869Z,26.49
2022-07-25T01:31:33.341Z,26.77
2022-07-25T01:34:02.873Z,26.91
2022-07-25T01:36:30.212Z,26.85
2022-07-25T01:39:01.374Z,27.37
2022-07-25T01:41:28.099Z,27.62
2022-07-25T01:43:55.002Z,27.68
2022-07-25T01:47:14.111Z,27.99
2022-07-25T01:49:41.009Z,27.98
2022-07-25T01:56:31.855Z,28.21
2022-07-25T01:58:59.195Z,28.38
2022-07-25T02:01:57.334Z,28.24
2022-07-25T02:04:27.443Z,28.37
2022-07-25T02:06:54.244Z,28.31
2022-07-25T02:09:21.233Z,28.38
2022-07-25T02:12:37.801Z,28.50
2022-07-25T02:15:35.994Z,28.43
2022-07-25T02:18:02.809Z,28.49
2022-07-25T02:20:29.603Z,28.31
2022-07-25T02:23:12.577Z,27.72
2022-07-25T02:25:39.327Z,28.18
2022-07-25T02:28:06.288Z,28.20
2022-07-25T02:30:47.591Z,28.11
2022-07-25T02:33:14.826Z,27.56
2022-07-25T02:35:41.825Z,28.28
2022-07-25T02:38:27.941Z,28.20
2022-07-25T02:40:54.576Z,28.45
2022-07-25T02:43:45.381Z,28.39
2022-07-25T02:46:12.333Z,28.31
2022-07-25T02:49:03.472Z,28.25
2022-07-25T02:51:30.667Z,28.33
2022-07-25T02:53:59.868Z,27.56
2022-07-25T02:56:30.231Z,27.09
2022-07-25T02:58:59.818Z,28.42
2022-07-25T03:01:30.241Z,27.92
2022-07-25T03:04:03.502Z,28.18
2022-07-25T03:06:30.997Z,28.10
2022-07-25T03:09:13.181Z,28.14
2022-07-25T03:11:40.107Z,28.27
2022-07-25T03:14:17.806Z,28.07
2022-07-25T03:16:44.751Z,28.08
2022-07-25T03:19:13.184Z,28.07
2022-07-25T03:22:02.946Z,28.14
2022-07-25T03:24:29.858Z,28.07
2022-07-25T03:26:58.835Z,28.15
2022-07-25T03:29:25.590Z,28.31
2022-07-25T03:32:04.977Z,28.16
2022-07-25T03:34:32.140Z,27.31
2022-07-25T03:37:07.176Z,27.43
2022-07-25T03:39:33.884Z,28.15
2022-07-25T03:42:00.632Z,27.92
2022-07-25T03:45:02.612Z,28.15
2022-07-25T03:47:29.887Z,28.24
2022-07-25T03:49:57.736Z,28.13
2022-07-25T03:53:10.502Z,28.32
2022-07-25T03:55:39.729Z,28.06
2022-07-25T03:58:28.301Z,28.35
2022-07-25T04:00:54.876Z,28.16
2022-07-25T04:03:29.060Z,27.61
2022-07-25T04:06:16.511Z,26.53
2022-07-25T04:08:43.344Z,28.50
2022-07-25T04:11:12.238Z,28.12
2022-07-25T04:13:38.821Z,28.53
2022-07-25T04:16:29.041Z,28.71
2022-07-25T04:18:57.537Z,28.80
2022-07-25T04:21:25.269Z,28.62
2022-07-25T04:24:00.227Z,26.84
2022-07-25T04:26:27.352Z,28.59
2022-07-25T04:28:54.701Z,28.81
2022-07-25T04:31:24.791Z,28.86
2022-07-25T04:33:51.770Z,28.76
2022-07-25T04:36:21.924Z,28.52
2022-07-25T04:38:57.764Z,28.82
2022-07-25T04:41:25.136Z,28.86
2022-07-25T04:43:58.042Z,28.88
2022-07-25T04:46:25.104Z,27.71
2022-07-25T04:48:54.666Z,28.38
2022-07-25T04:51:21.477Z,28.86
2022-07-25T04:53:55.250Z,28.78
2022-07-25T04:56:22.780Z,29.10
2022-07-25T04:59:06.353Z,28.77
2022-07-25T05:01:34.699Z,29.12
2022-07-25T05:04:01.906Z,29.09
2022-07-25T05:06:28.989Z,29.30
2022-07-25T05:09:10.806Z,28.85
2022-07-25T05:11:37.612Z,29.28
2022-07-25T05:14:19.020Z,29.05
2022-07-25T05:16:48.711Z,28.33
2022-07-25T05:19:30.141Z,29.24
2022-07-25T05:22:00.141Z,29.51
2022-07-25T05:24:27.646Z,29.54
2022-07-25T05:26:55.716Z,29.76
2022-07-25T05:29:30.957Z,29.24
2022-07-25T05:32:01.447Z,29.89
2022-07-25T05:34:37.667Z,30.02
2022-07-25T05:37:05.202Z,29.81
2022-07-25T05:39:45.612Z,30.39
2022-07-25T05:42:13.648Z,29.41
2022-07-25T05:44:48.593Z,30.17
2022-07-25T05:47:16.307Z,30.05
2022-07-25T05:49:43.429Z,30.51
2022-07-25T05:52:13.439Z,29.60
2022-07-25T05:54:45.616Z,30.41
2022-07-25T05:57:15.845Z,30.69
2022-07-25T05:59:45.604Z,31.21
2022-07-25T06:02:15.512Z,30.16
2022-07-25T06:04:49.874Z,31.01
2022-07-25T06:07:22.936Z,29.56
2022-07-25T06:09:50.268Z,30.76
2022-07-25T06:12:19.347Z,30.27
2022-07-25T06:14:46.768Z,30.98
2022-07-25T06:17:14.945Z,30.18
2022-07-25T06:20:05.398Z,31.23
2022-07-25T06:22:33.968Z,31.67
2022-07-25T06:25:22.200Z,31.37
2022-07-25T06:27:49.996Z,31.33
2022-07-25T06:30:39.253Z,31.76
2022-07-25T06:33:06.510Z,31.36
2022-07-25T06:36:32.362Z,32.09
2022-07-25T06:39:21.923Z,30.71
2022-07-25T06:41:49.451Z,31.85
2022-07-25T06:44:16.295Z,32.23
2022-07-25T06:47:01.468Z,31.81
2022-07-25T06:49:28.716Z,32.54
2022-07-25T06:51:56.907Z,32.23
2022-07-25T06:54:32.987Z,31.93
2022-07-25T06:57:00.634Z,32.74
2022-07-25T06:59:27.761Z,33.06
2022-07-25T07:01:57.038Z,33.01
2022-07-25T07:04:23.771Z,32.59
2022-07-25T07:07:26.924Z,32.66
2022-07-25T07:09:54.050Z,33.40
2022-07-25T07:12:23.774Z,33.05
2022-07-25T07:15:47.966Z,33.72
2022-07-25T07:18:15.464Z,34.06
2022-07-25T07:20:50.358Z,33.55
2022-07-25T07:23:18.025Z,34.02
2022-07-25T07:25:47.281Z,34.58
2022-07-25T07:28:57.444Z,34.70
2022-07-25T07:31:27.260Z,34.21
2022-07-25T07:34:08.064Z,34.39
2022-07-25T07:36:38.452Z,33.93
2022-07-25T07:39:06.855Z,34.80
2022-07-25T07:41:36.303Z,34.71
2022-07-25T07:44:03.227Z,34.67
2022-07-25T07:46:30.241Z,34.67
2022-07-25T07:48:58.930Z,34.93
2022-07-25T07:51:28.891Z,34.91
2022-07-25T07:57:44.495Z,35.00
2022-07-25T08:00:16.442Z,35.60
2022-07-25T08:02:49.712Z,35.78
2022-07-25T08:06:03.606Z,36.07
2022-07-25T08:08:32.041Z,35.70
2022-07-25T08:11:16.344Z,35.75
2022-07-25T08:13:44.360Z,36.94
2022-07-25T08:16:14.541Z,35.19
2022-07-25T08:18:52.857Z,37.00
2022-07-25T08:21:20.902Z,36.74
2022-07-25T08:23:59.063Z,34.41
2022-07-25T08:27:06.570Z,37.52
2022-07-25T08:29:42.063Z,35.59
2022-07-25T08:32:12.089Z,37.55
2022-07-25T08:34:42.342Z,37.41
2022-07-25T08:37:31.181Z,36.50
2022-07-25T08:39:59.700Z,37.73
2022-07-25T08:42:40.603Z,38.35
2022-07-25T08:48:00.979Z,38.12
2022-07-25T08:50:30.802Z,36.78
2022-07-25T08:53:30.456Z,38.07
2022-07-25T08:55:52.335Z,36.66
2022-07-25T08:58:37.224Z,36.99
2022-07-25T09:01:08.650Z,37.22
2022-07-25T09:03:44.802Z,37.67
2022-07-25T09:06:17.571Z,38.36
2022-07-25T09:08:59.861Z,38.24
2022-07-25T09:11:31.344Z,38.58
2022-07-25T09:14:26.664Z,37.69
2022-07-25T09:16:56.909Z,38.54
2022-07-25T09:19:29.354Z,39.17
2022-07-25T09:22:13.063Z,38.85
2022-07-25T09:24:45.865Z,39.00
2022-07-25T09:27:18.230Z,37.85
2022-07-25T09:30:29.399Z,38.56
2022-07-25T09:33:05.245Z,36.91
2022-07-25T09:35:41.311Z,38.29
2022-07-25T09:38:21.309Z,39.21
2022-07-25T09:41:01.806Z,38.31
2022-07-25T09:43:45.093Z,39.09
2022-07-25T09:46:15.460Z,37.66
2022-07-25T09:49:05.332Z,37.37
2022-07-25T09:51:47.498Z,40.23
2022-07-25T09:54:18.397Z,39.19
2022-07-25T09:56:49.632Z,40.15
2022-07-25T09:59:19.688Z,37.32
2022-07-25T10:02:01.303Z,39.82
2022-07-25T10:04:51.017Z,39.78
2022-07-25T10:07:22.228Z,39.04
2022-07-25T10:10:26.856Z,38.81
2022-07-25T10:13:30.404Z,37.33
2022-07-25T10:16:00.698Z,39.76
2022-07-25T10:23:10.515Z,40.11
2022-07-25T10:25:38.035Z,37.66
2022-07-25T10:28:10.257Z,39.54
2022-07-25T10:30:41.202Z,38.01
2022-07-25T10:37:19.980Z,39.11
2022-07-25T10:39:48.920Z,39.45
2022-07-25T10:47:56.135Z,39.66
2022-07-25T10:50:53.514Z,39.07
2022-07-25T10:53:12.953Z,40.30
2022-07-25T10:56:26.928Z,40.08
2022-07-25T10:59:02.131Z,38.61
2022-07-25T11:01:32.272Z,40.14
2022-07-25T11:04:03.558Z,39.91
2022-07-25T11:06:42.775Z,39.89
2022-07-25T11:10:01.504Z,39.44
2022-07-25T11:12:30.166Z,39.78
2022-07-25T11:15:14.461Z,39.97
2022-07-25T11:19:12.791Z,40.47
2022-07-25T11:21:56.912Z,40.82
2022-07-25T11:24:37.608Z,39.10
2022-07-25T11:27:12.191Z,39.58
2022-07-25T11:29:43.003Z,40.35
2022-07-25T11:32:16.097Z,39.82
2022-07-25T11:35:06.640Z,38.15
2022-07-25T11:37:41.277Z,39.87
2022-07-25T11:40:19.892Z,40.21
2022-07-25T11:43:04.218Z,39.68
2022-07-25T11:45:34.890Z,39.12
2022-07-25T11:48:23.852Z,39.82
2022-07-25T11:50:53.750Z,38.59
2022-07-25T11:54:05.187Z,39.68
2022-07-25T11:59:21.215Z,39.27
2022-07-25T12:05:41.415Z,37.99
2022-07-25T12:08:25.554Z,39.23
2022-07-25T12:10:52.501Z,39.47
2022-07-25T12:13:31.488Z,37.91
2022-07-25T12:16:00.983Z,39.26
2022-07-25T12:18:58.155Z,39.70
2022-07-25T12:21:28.251Z,40.34
2022-07-25T12:23:57.303Z,38.77
2022-07-25T12:26:30.809Z,39.03
2022-07-25T12:29:13.663Z,40.82
2022-07-25T12:31:42.672Z,37.67
2022-07-25T12:34:52.462Z,40.87
2022-07-25T12:37:22.383Z,38.59
2022-07-25T12:40:01.634Z,40.09
2022-07-25T12:42:33.119Z,39.85
2022-07-25T12:45:05.134Z,38.70
2022-07-25T12:48:17.013Z,40.38
2022-07-25T12:50:54.494Z,38.96
2022-07-25T12:53:24.543Z,39.28
2022-07-25T12:55:55.585Z,40.48
2022-07-25T12:59:05.933Z,40.54
2022-07-25T13:01:38.998Z,39.45
2022-07-25T13:04:10.667Z,39.25
2022-07-25T13:10:42.724Z,40.57
2022-07-25T13:13:12.672Z,39.52
2022-07-25T13:23:28.213Z,39.72
2022-07-25T13:29:07.061Z,39.46
2022-07-25T13:32:17.903Z,39.67
2022-07-25T13:34:51.119Z,38.67
2022-07-25T13:38:02.163Z,40.05
2022-07-25T13:40:31.043Z,39.78
2022-07-25T13:43:29.668Z,38.90
2022-07-25T13:46:02.815Z,38.60
2022-07-25T13:48:33.693Z,38.52
2022-07-25T13:51:07.316Z,39.93
2022-07-25T13:53:59.459Z,39.11
2022-07-25T13:57:10.259Z,39.16
2022-07-25T13:59:43.272Z,39.26
2022-07-25T14:02:19.227Z,39.45
2022-07-25T14:05:02.154Z,37.80
2022-07-25T14:07:38.740Z,37.13
2022-07-25T14:10:08.729Z,40.41
2022-07-25T14:12:44.998Z,36.61
2022-07-25T14:15:13.159Z,38.26
2022-07-25T14:18:59.157Z,38.93
2022-07-25T14:21:33.079Z,37.68
2022-07-25T14:24:17.712Z,36.91
2022-07-25T14:26:44.607Z,37.41
2022-07-25T14:31:57.825Z,36.54
2022-07-25T14:34:44.017Z,36.17
2022-07-25T14:37:51.409Z,36.48
2022-07-25T14:40:27.246Z,35.66
2022-07-25T14:43:19.519Z,31.91
2022-07-25T14:45:53.807Z,31.71
2022-07-25T15:05:00.225Z,29.29
2022-07-25T15:07:40.421Z,29.93
2022-07-25T15:10:17.551Z,29.76
2022-07-25T15:16:18.668Z,28.74
2022-07-25T15:19:13.395Z,27.47
2022-07-25T15:22:16.290Z,29.46
2022-07-25T16:00:12.626Z,26.23
2022-07-25T16:02:44.979Z,24.83
2022-07-25T16:29:24.747Z,25.13
2022-07-25T16:31:55.510Z,26.29
2022-07-25T16:34:29.173Z,26.53
2022-07-25T16:37:00.826Z,22.97
2022-07-25T16:39:32.117Z,26.63
2022-07-25T16:42:00.621Z,24.74
2022-07-25T16:44:50.552Z,26.94
2022-07-25T16:47:24.711Z,25.33
2022-07-25T16:49:55.284Z,27.06
2022-07-25T16:52:22.955Z,24.31
2022-07-25T16:54:50.345Z,27.32
2022-07-25T16:57:17.619Z,27.36
2022-07-25T16:59:47.724Z,24.38
2022-07-25T17:02:14.890Z,24.43
2022-07-25T17:04:41.854Z,28.00
2022-07-25T17:07:10.631Z,28.26
2022-07-25T17:09:37.634Z,28.20
2022-07-25T17:12:11.918Z,28.47
2022-07-25T17:14:38.713Z,27.10
2022-07-25T17:17:14.291Z,28.68
2022-07-25T17:19:41.401Z,28.33
2022-07-25T17:22:10.168Z,28.46
2022-07-25T17:24:40.885Z,26.77
2022-07-25T17:27:08.986Z,28.34
2022-07-25T17:29:57.594Z,28.21
2022-07-25T17:32:29.700Z,28.32
2022-07-25T17:34:58.290Z,28.33
2022-07-25T17:37:41.853Z,28.06
2022-07-25T17:40:10.299Z,28.49
2022-07-25T17:42:44.919Z,28.71
2022-07-25T17:45:18.444Z,28.78
2022-07-25T17:47:48.657Z,27.77
2022-07-25T17:50:32.803Z,28.59
2022-07-25T17:53:02.488Z,28.73
2022-07-25T17:55:39.175Z,28.35
2022-07-25T17:58:10.152Z,26.46
2022-07-25T18:00:38.860Z,27.49
2022-07-25T18:03:15.157Z,27.76
2022-07-25T18:05:44.609Z,25.37
2022-07-25T18:08:15.449Z,27.39
2022-07-25T18:10:53.976Z,27.46
2022-07-25T18:13:22.321Z,27.92
2022-07-25T18:15:54.033Z,28.08
2022-07-25T18:18:21.022Z,27.83
2022-07-25T18:21:15.539Z,24.38
2022-07-25T18:23:45.542Z,27.25
2022-07-25T18:26:12.375Z,28.04
2022-07-25T18:28:47.836Z,28.14
2022-07-25T18:31:14.617Z,28.15
2022-07-25T18:33:42.102Z,26.49
2022-07-25T18:36:12.659Z,25.39
2022-07-25T18:38:48.243Z,27.69
2022-07-25T18:41:29.386Z,27.44
2022-07-25T18:44:18.480Z,24.54
2022-07-25T18:46:48.070Z,27.47
2022-07-25T18:49:30.334Z,25.80
2022-07-25T18:52:00.712Z,26.50
2022-07-25T18:54:30.881Z,27.44
2022-07-25T18:57:01.372Z,27.56
2022-07-25T18:59:32.743Z,25.64
2022-07-25T19:02:03.240Z,24.61
2022-07-25T19:04:35.622Z,27.33
2022-07-25T19:07:35.344Z,27.57
2022-07-25T19:10:07.365Z,27.62
2022-07-25T19:12:37.991Z,27.07
2022-07-25T19:15:08.386Z,26.64
2022-07-25T19:17:38.713Z,25.67
2022-07-25T19:20:09.701Z,24.57
2022-07-25T19:22:36.312Z,27.66
2022-07-25T19:25:27.825Z,27.70
2022-07-25T19:27:55.053Z,27.72
2022-07-25T19:30:30.534Z,27.01
2022-07-25T19:32:57.526Z,27.40
2022-07-25T19:35:41.628Z,27.57
2022-07-25T19:38:13.011Z,27.14
2022-07-25T19:40:46.122Z,26.87
2022-07-25T19:43:15.665Z,26.85
2022-07-25T19:45:45.113Z,27.64
2022-07-25T19:48:12.407Z,27.52
2022-07-25T19:50:42.077Z,27.32
2022-07-25T19:53:32.570Z,27.51
2022-07-25T19:56:01.852Z,27.23
2022-07-25T19:58:31.506Z,27.35
2022-07-25T20:01:02.654Z,26.99
2022-07-25T20:03:37.804Z,27.28
2022-07-25T20:06:08.090Z,26.70
2022-07-25T20:08:39.725Z,27.08
2022-07-25T20:11:14.913Z,27.31
2022-07-25T20:13:45.428Z,27.30
2022-07-25T20:16:15.740Z,27.21
2022-07-25T20:18:45.942Z,26.45
2022-07-25T20:21:20.449Z,26.60
2022-07-25T20:23:52.968Z,26.47
2022-07-25T20:26:24.750Z,27.09
2022-07-25T20:28:55.474Z,26.96
2022-07-25T20:31:24.995Z,26.99
2022-07-25T20:33:55.591Z,26.85
2022-07-25T20:36:24.887Z,24.91
2022-07-25T20:38:57.384Z,26.99
2022-07-25T20:41:25.878Z,26.85
2022-07-25T20:44:32.534Z,26.90
2022-07-25T20:47:06.422Z,25.85
2022-07-25T20:49:46.185Z,25.39
2022-07-25T20:52:22.309Z,26.40
2022-07-25T20:54:56.239Z,26.95
2022-07-25T20:57:50.480Z,24.95
2022-07-25T21:00:21.984Z,26.84
2022-07-25T21:02:54.602Z,26.34
2022-07-25T21:05:31.099Z,26.75
2022-07-25T21:08:06.199Z,25.80
2022-07-25T21:10:48.386Z,26.04
2022-07-25T21:13:25.207Z,25.09
2022-07-25T21:16:02.181Z,26.60
2022-07-25T21:18:38.545Z,26.22
2022-07-25T21:21:12.485Z,26.54
2022-07-25T21:23:44.901Z,26.49
2022-07-25T21:26:19.860Z,25.15
2022-07-25T21:28:56.891Z,26.49
2022-07-25T21:31:30.183Z,23.22
2022-07-25T21:34:04.255Z,26.16
2022-07-25T21:36:40.349Z,26.68
2022-07-25T21:39:22.817Z,26.49
2022-07-25T21:42:11.325Z,26.43
2022-07-25T21:44:51.525Z,25.39
2022-07-25T21:47:24.033Z,25.96
2022-07-25T21:53:42.457Z,25.86
2022-07-25T21:56:19.975Z,26.17
2022-07-25T21:58:56.081Z,26.29
2022-07-25T22:01:39.054Z,25.88
2022-07-25T22:04:21.237Z,25.72
2022-07-25T22:07:14.313Z,25.92
2022-07-25T22:09:44.234Z,25.43
2022-07-25T22:12:26.399Z,25.91
2022-07-25T22:15:11.958Z,25.54
2022-07-25T22:17:54.923Z,26.12
2022-07-25T22:20:28.284Z,26.10
2022-07-25T22:23:01.181Z,26.19
2022-07-25T22:25:37.520Z,24.88
2022-07-25T22:28:15.279Z,26.07
2022-07-25T22:31:06.591Z,25.11
2022-07-25T22:37:48.592Z,24.43
2022-07-25T22:40:45.291Z,26.21
2022-07-25T22:43:16.354Z,25.82
2022-07-25T22:46:02.951Z,26.00
2022-07-25T22:48:39.807Z,22.09
2022-07-25T22:51:24.369Z,25.52
2022-07-25T22:54:14.401Z,25.19
2022-07-25T22:56:50.817Z,26.14
2022-07-25T22:59:41.190Z,26.30
2022-07-25T23:02:38.710Z,26.25
2022-07-25T23:05:14.684Z,22.85
2022-07-25T23:07:54.109Z,22.78
2022-07-25T23:10:24.620Z,24.95
2022-07-25T23:13:10.983Z,24.10
2022-07-25T23:18:31.307Z,22.51
2022-07-25T23:21:20.784Z,22.66
2022-07-25T23:23:50.737Z,22.51
2022-07-25T23:26:25.583Z,24.57
2022-07-25T23:28:55.138Z,24.91
2022-07-25T23:31:39.120Z,25.53
2022-07-25T23:34:19.488Z,25.27
2022-07-25T23:36:52.678Z,25.75
2022-07-25T23:39:22.659Z,22.55
2022-07-25T23:42:01.046Z,24.37
2022-07-25T23:44:36.569Z,25.95
2022-07-25T23:47:09.956Z,25.99
2022-07-25T23:49:46.265Z,24.92
2022-07-25T23:52:29.683Z,25.90
2022-07-25T23:55:03.757Z,25.80
2022-07-25T23:57:37.256Z,24.46
